Time;durP1;ratioP1;P1;durP2;ratioP2;P2;SDS_P1;SDS_P2;PMS_P1;PMS_P2;Temp;Humidity;BMP_temperature;BMP_pressure;BME280_temperature;BME280_humidity;BME280_pressure;Samples;Min_cycle;Max_cycle;Signal;HPM_P1;HPM_P2
2022/06/04 00:01:44;;;;;;;23.13;20.45;;;20.30;99.90;;;;;;5098254;28;20072;-78
2022/06/04 00:04:13;;;;;;;26.23;21.63;;;19.90;99.90;;;;;;5082155;28;20053;-78
2022/06/04 00:06:40;;;;;;;30.63;25.70;;;19.60;99.90;;;;;;5062810;28;20392;-79
2022/06/04 00:09:09;;;;;;;34.83;28.45;;;19.50;99.90;;;;;;5065300;28;20068;-80
2022/06/04 00:17:10;;;;;;;32.30;28.52;;;19.50;99.90;;;;;;5060726;28;20048;-78
2022/06/04 00:19:39;;;;;;;30.17;26.70;;;19.50;99.90;;;;;;5077842;28;20173;-80
2022/06/04 00:22:06;;;;;;;31.08;25.60;;;19.50;99.90;;;;;;5088396;28;20403;-78
2022/06/04 00:24:34;;;;;;;26.65;23.77;;;19.50;99.90;;;;;;5095788;28;20048;-78
2022/06/04 00:27:03;;;;;;;31.60;25.20;;;19.40;99.90;;;;;;5094009;28;20046;-78
2022/06/04 00:29:31;;;;;;;27.17;24.30;;;19.40;99.90;;;;;;5094074;28;20562;-78
2022/06/04 00:31:59;;;;;;;27.42;23.25;;;19.30;99.90;;;;;;5094106;28;20126;-78
2022/06/04 00:34:26;;;;;;;25.65;22.60;;;19.40;99.90;;;;;;5075326;28;20055;-77
2022/06/04 00:36:54;;;;;;;26.00;22.90;;;19.30;99.90;;;;;;5075843;28;20044;-78
2022/06/04 00:39:21;;;;;;;31.30;23.25;;;19.30;99.90;;;;;;5093750;28;20093;-78
2022/06/04 00:41:55;;;;;;;27.92;23.55;;;19.30;99.90;;;;;;5097831;28;20054;-79
2022/06/04 00:45:14;;;;;;;27.88;22.58;;;19.30;99.90;;;;;;5097046;28;20433;-77
2022/06/04 00:47:43;;;;;;;23.65;21.13;;;19.30;99.90;;;;;;5093923;28;20043;-74
2022/06/04 00:50:11;;;;;;;23.23;20.73;;;19.30;99.90;;;;;;5093614;28;20098;-75
2022/06/04 00:52:38;;;;;;;22.83;20.00;;;19.30;99.90;;;;;;5093257;28;20051;-75
2022/06/04 00:55:07;;;;;;;18.40;15.18;;;19.30;99.90;;;;;;5109536;28;20043;-74
2022/06/04 00:58:01;;;;;;;21.05;14.57;;;19.20;99.90;;;;;;5061656;28;20071;-75
2022/06/04 01:00:34;;;;;;;17.55;14.75;;;19.10;99.90;;;;;;5073282;28;20136;-77
2022/06/04 01:03:17;;;;;;;19.40;16.02;;;19.10;99.90;;;;;;5071790;28;20052;-81
2022/06/04 01:06:12;;;;;;;18.45;15.43;;;19.10;99.90;;;;;;5106575;28;20052;-78
2022/06/04 01:08:58;;;;;;;22.50;17.65;;;19.10;99.90;;;;;;5097925;28;20068;-78
2022/06/04 01:11:38;;;;;;;23.63;20.70;;;19.10;99.90;;;;;;5096529;28;20182;-79
2022/06/04 01:14:17;;;;;;;29.13;25.15;;;19.10;99.90;;;;;;5098973;28;20048;-79
2022/06/04 01:16:52;;;;;;;28.35;23.45;;;19.10;99.90;;;;;;5097328;28;20064;-74
2022/06/04 01:19:46;;;;;;;28.48;25.50;;;19.10;99.90;;;;;;5098303;28;20068;-75
2022/06/04 01:22:34;;;;;;;27.02;24.08;;;19.10;99.90;;;;;;5097405;28;20128;-75
2022/06/04 01:25:26;;;;;;;25.30;21.92;;;19.10;99.90;;;;;;5079981;28;20044;-78
2022/06/04 01:28:01;;;;;;;25.65;22.83;;;19.00;99.90;;;;;;5098621;28;20068;-78
2022/06/04 01:30:34;;;;;;;26.45;23.45;;;19.00;99.90;;;;;;5097751;28;20497;-78
2022/06/04 01:33:08;;;;;;;26.38;20.05;;;19.10;99.90;;;;;;5079969;28;20052;-77
2022/06/04 01:35:40;;;;;;;25.10;20.15;;;19.00;99.90;;;;;;5098271;28;20040;-76
2022/06/04 01:38:14;;;;;;;25.02;21.35;;;19.10;99.90;;;;;;5097168;28;20044;-76
2022/06/04 01:43:33;;;;;;;23.58;20.83;;;19.10;99.90;;;;;;5078557;28;20054;-76
2022/06/04 01:46:04;;;;;;;22.77;20.45;;;19.10;99.90;;;;;;5096652;28;20052;-75
2022/06/04 01:48:34;;;;;;;24.88;20.30;;;19.10;99.90;;;;;;5078707;28;20088;-76
2022/06/04 01:51:04;;;;;;;23.80;21.42;;;19.00;99.90;;;;;;5097487;28;20360;-75
2022/06/04 01:53:35;;;;;;;23.65;21.05;;;19.00;99.90;;;;;;5096833;28;20071;-75
2022/06/04 01:56:06;;;;;;;25.55;20.30;;;19.00;99.90;;;;;;5097293;28;20044;-75
2022/06/04 01:58:38;;;;;;;25.60;21.50;;;19.00;99.90;;;;;;5097432;28;20090;-74
2022/06/04 02:01:08;;;;;;;23.88;21.35;;;19.00;99.90;;;;;;5075439;28;20396;-75
2022/06/04 02:03:39;;;;;;;28.35;21.70;;;19.00;99.90;;;;;;5076355;28;20124;-75
2022/06/04 02:06:12;;;;;;;24.45;21.70;;;19.00;99.90;;;;;;5076807;28;20094;-75
2022/06/04 02:08:44;;;;;;;24.85;21.90;;;19.00;99.90;;;;;;5076496;28;20090;-75
2022/06/04 02:11:13;;;;;;;24.70;22.15;;;19.00;99.90;;;;;;5077292;28;20040;-75
2022/06/04 02:13:44;;;;;;;24.15;21.17;;;19.00;99.90;;;;;;5076629;28;20052;-75
2022/06/04 02:16:20;;;;;;;24.52;21.92;;;19.00;99.90;;;;;;5074933;28;20048;-76
2022/06/04 02:18:49;;;;;;;24.45;21.88;;;18.90;99.90;;;;;;5076208;28;20044;-75
2022/06/04 02:21:17;;;;;;;23.65;21.25;;;18.90;99.90;;;;;;5076720;28;20090;-75
2022/06/04 02:23:45;;;;;;;25.27;21.48;;;18.90;99.90;;;;;;5075742;28;20407;-74
2022/06/04 02:26:13;;;;;;;24.02;21.58;;;18.80;99.90;;;;;;5074805;28;20083;-76
2022/06/04 02:28:42;;;;;;;24.60;21.67;;;18.90;99.90;;;;;;5075592;28;20051;-74
2022/06/04 02:31:16;;;;;;;24.83;21.58;;;18.90;99.90;;;;;;5075963;28;20056;-75
2022/06/04 02:33:54;;;;;;;25.95;21.55;;;18.90;99.90;;;;;;5075886;28;20046;-75
2022/06/04 02:36:31;;;;;;;24.33;21.88;;;18.90;99.90;;;;;;5076769;28;20037;-75
2022/06/04 02:39:09;;;;;;;24.80;20.95;;;19.00;99.90;;;;;;5075940;28;20036;-75
2022/06/04 02:41:40;;;;;;;24.17;21.45;;;19.00;99.90;;;;;;5076523;28;20427;-75
2022/06/04 02:44:16;;;;;;;27.30;23.15;;;19.00;99.90;;;;;;5075488;28;20048;-75
2022/06/04 02:46:49;;;;;;;23.58;21.17;;;19.00;99.90;;;;;;5075783;28;20043;-75
2022/06/04 02:49:23;;;;;;;22.42;20.08;;;19.00;99.90;;;;;;5075549;28;20094;-75
2022/06/04 02:51:52;;;;;;;22.27;19.92;;;19.00;99.90;;;;;;5074701;28;20175;-75
2022/06/04 02:54:27;;;;;;;23.15;20.85;;;19.00;99.90;;;;;;5075733;28;20071;-75
2022/06/04 02:56:56;;;;;;;24.33;21.73;;;19.00;99.90;;;;;;5076404;28;20037;-75
2022/06/04 02:59:26;;;;;;;23.38;20.83;;;19.00;99.90;;;;;;5075527;28;20464;-76
2022/06/04 03:01:58;;;;;;;23.10;20.70;;;18.90;99.90;;;;;;5092299;28;20048;-75
2022/06/04 03:04:26;;;;;;;23.58;20.90;;;18.80;99.90;;;;;;5095240;28;20097;-77
2022/06/04 03:06:54;;;;;;;24.27;21.02;;;18.80;99.90;;;;;;5075066;28;20466;-75
2022/06/04 03:09:22;;;;;;;23.77;21.30;;;18.70;99.90;;;;;;5081207;28;20044;-75
2022/06/04 03:11:51;;;;;;;24.35;20.83;;;18.70;99.90;;;;;;5075913;28;20094;-75
2022/06/04 03:14:19;;;;;;;22.83;20.40;;;18.70;99.90;;;;;;5076314;28;20401;-78
2022/06/04 03:16:49;;;;;;;23.75;20.73;;;18.80;99.90;;;;;;5076183;28;20036;-77
2022/06/04 03:19:17;;;;;;;24.60;20.02;;;18.80;99.90;;;;;;5081361;28;20040;-75
2022/06/04 03:21:45;;;;;;;21.85;19.45;;;18.70;99.90;;;;;;5065315;28;20388;-75
2022/06/04 03:24:14;;;;;;;21.85;19.65;;;18.80;99.90;;;;;;5080815;28;20045;-75
2022/06/04 03:26:41;;;;;;;21.70;19.38;;;18.80;99.90;;;;;;5074976;28;20037;-75
2022/06/04 03:29:09;;;;;;;22.55;20.13;;;18.90;99.90;;;;;;5074711;28;20064;-75
2022/06/04 03:31:37;;;;;;;22.10;17.85;;;18.90;99.90;;;;;;5076602;28;20052;-77
2022/06/04 03:34:05;;;;;;;19.85;17.45;;;18.90;99.90;;;;;;5078033;28;20513;-77
2022/06/04 03:36:33;;;;;;;21.83;17.42;;;18.90;99.90;;;;;;5067998;28;20045;-77
2022/06/04 03:39:01;;;;;;;22.02;17.88;;;18.90;99.90;;;;;;5075343;28;20442;-78
2022/06/04 03:41:29;;;;;;;29.00;17.65;;;18.90;99.90;;;;;;5074571;28;20040;-78
2022/06/04 03:43:56;;;;;;;24.58;17.17;;;18.90;99.90;;;;;;5076412;28;20052;-78
2022/06/04 03:46:25;;;;;;;19.80;16.65;;;19.00;99.90;;;;;;5075818;28;20045;-76
2022/06/04 03:48:52;;;;;;;19.48;16.33;;;19.00;99.90;;;;;;5088956;28;20047;-75
2022/06/04 03:51:21;;;;;;;19.30;16.92;;;19.10;99.90;;;;;;5084677;28;20040;-78
2022/06/04 03:53:48;;;;;;;19.02;17.13;;;19.20;99.90;;;;;;5085101;28;20567;-77
2022/06/04 03:56:16;;;;;;;20.00;17.73;;;19.30;99.90;;;;;;5095929;28;20139;-75
2022/06/04 03:58:43;;;;;;;21.40;17.50;;;19.50;99.90;;;;;;5096587;28;20040;-77
2022/06/04 04:01:15;;;;;;;17.58;15.43;;;19.70;99.90;;;;;;5095277;28;20556;-77
2022/06/04 04:03:42;;;;;;;17.45;14.20;;;19.90;99.90;;;;;;5094065;28;20048;-76
2022/06/04 04:06:14;;;;;;;16.45;14.00;;;20.30;99.90;;;;;;5071221;28;20098;-75
2022/06/04 04:08:43;;;;;;;14.70;13.07;;;20.50;99.90;;;;;;5076693;28;20032;-75
2022/06/04 04:11:14;;;;;;;15.13;12.63;;;20.80;99.90;;;;;;5074110;28;20068;-75
2022/06/04 04:13:42;;;;;;;14.80;11.70;;;21.20;99.90;;;;;;5074063;28;20125;-75
2022/06/04 04:16:11;;;;;;;14.45;10.27;;;21.80;99.90;;;;;;5074359;28;20040;-75
2022/06/04 04:18:38;;;;;;;15.10;9.95;;;22.60;99.90;;;;;;5086858;28;20042;-76
2022/06/04 04:21:08;;;;;;;11.38;9.82;;;23.10;99.90;;;;;;5094546;28;20048;-76
2022/06/04 04:23:36;;;;;;;11.55;10.20;;;23.30;99.90;;;;;;5088171;28;20064;-75
2022/06/04 04:26:07;;;;;;;11.55;10.00;;;23.30;99.90;;;;;;5073661;28;20040;-75
2022/06/04 04:28:35;;;;;;;12.02;10.50;;;23.00;99.90;;;;;;5073388;28;20079;-75
2022/06/04 04:31:02;;;;;;;14.73;10.68;;;22.50;99.90;;;;;;5080432;28;20040;-76
2022/06/04 04:33:30;;;;;;;14.27;12.40;;;22.00;99.90;;;;;;5093575;28;20039;-75
2022/06/04 04:35:57;;;;;;;14.88;12.05;;;21.80;99.90;;;;;;5094563;28;20044;-76
2022/06/04 04:38:24;;;;;;;14.20;10.82;;;21.70;99.90;;;;;;5093660;28;20035;-76
2022/06/04 04:40:51;;;;;;;11.35;10.18;;;22.00;99.90;;;;;;5093889;28;20430;-75
2022/06/04 04:43:21;;;;;;;10.95;9.82;;;22.50;99.90;;;;;;5093985;28;20101;-76
2022/06/04 04:45:48;;;;;;;13.35;9.63;;;22.90;99.90;;;;;;5093801;28;20068;-76
2022/06/04 04:48:16;;;;;;;14.27;9.65;;;23.60;99.90;;;;;;5081785;28;20037;-75
2022/06/04 04:50:48;;;;;;;11.40;9.13;;;24.50;99.90;;;;;;5073498;28;20059;-75
2022/06/04 04:53:16;;;;;;;11.02;8.15;;;25.50;99.90;;;;;;5074163;28;20064;-76
2022/06/04 04:55:47;;;;;;;11.00;7.70;;;26.20;99.90;;;;;;5093899;28;20068;-76
2022/06/04 04:58:14;;;;;;;11.38;8.35;;;27.00;99.90;;;;;;5093618;28;20036;-76
2022/06/04 05:00:44;;;;;;;9.32;7.38;;;27.80;99.90;;;;;;5093157;28;20568;-75
2022/06/04 05:03:13;;;;;;;10.45;7.90;;;28.30;99.90;;;;;;5094506;28;20056;-79
2022/06/04 05:05:40;;;;;;;10.70;7.57;;;28.70;99.90;;;;;;5096388;28;20040;-77
2022/06/04 05:08:07;;;;;;;9.82;7.07;;;29.20;99.90;;;;;;5093801;28;20081;-76
2022/06/04 05:10:34;;;;;;;9.45;7.00;;;29.20;99.90;;;;;;5094028;28;20574;-79
2022/06/04 05:13:02;;;;;;;10.88;7.43;;;28.90;99.90;;;;;;5094674;28;20047;-77
2022/06/04 05:15:29;;;;;;;9.68;7.88;;;28.60;99.90;;;;;;5093667;28;20093;-79
2022/06/04 05:17:58;;;;;;;11.07;8.15;;;28.80;99.90;;;;;;5094329;28;20094;-77
2022/06/04 05:20:25;;;;;;;11.23;8.05;;;28.90;99.90;;;;;;5093085;28;20040;-76
2022/06/04 05:22:52;;;;;;;10.73;9.32;;;29.00;99.90;;;;;;5093588;28;20052;-76
2022/06/04 05:25:20;;;;;;;15.45;9.02;;;28.80;99.90;;;;;;5092917;28;20479;-76
2022/06/04 05:27:47;;;;;;;14.15;8.05;;;29.10;99.90;;;;;;5093156;28;20406;-76
2022/06/04 05:30:15;;;;;;;10.82;8.27;;;29.60;99.90;;;;;;5093146;28;20044;-76
2022/06/04 05:32:42;;;;;;;10.88;8.38;;;30.10;99.90;;;;;;5092703;28;20032;-77
2022/06/04 05:35:11;;;;;;;8.65;7.75;;;30.10;99.90;;;;;;5093567;28;20476;-76
2022/06/04 05:37:38;;;;;;;9.73;7.65;;;29.80;99.90;;;;;;5092844;28;20086;-76
2022/06/04 05:40:07;;;;;;;14.20;8.73;;;29.30;99.90;;;;;;5092655;28;20051;-76
2022/06/04 05:42:34;;;;;;;11.55;8.02;;;29.10;99.90;;;;;;5081858;28;20036;-76
2022/06/04 05:45:01;;;;;;;10.48;8.82;;;28.90;99.90;;;;;;5072758;28;20094;-76
2022/06/04 05:47:29;;;;;;;11.15;8.82;;;28.90;99.90;;;;;;5075785;28;20056;-76
2022/06/04 05:49:56;;;;;;;13.60;8.75;;;28.80;99.90;;;;;;5092396;28;20135;-76
2022/06/04 05:52:25;;;;;;;10.55;8.00;;;28.30;99.90;;;;;;5092500;28;20530;-76
2022/06/04 05:54:52;;;;;;;13.02;8.68;;;27.90;99.90;;;;;;5092253;28;20040;-76
2022/06/04 05:57:20;;;;;;;10.90;7.57;;;28.00;99.90;;;;;;5092480;28;20098;-76
2022/06/04 05:59:49;;;;;;;12.88;8.18;;;28.50;99.90;;;;;;5074382;28;20388;-76
2022/06/04 06:02:16;;;;;;;16.88;10.07;;;28.60;99.90;;;;;;5091625;28;20056;-77
2022/06/04 06:04:44;;;;;;;14.93;11.75;;;28.60;99.90;;;;;;5094083;28;20043;-76
2022/06/04 06:07:11;;;;;;;14.77;9.10;;;28.70;99.90;;;;;;5096543;28;20044;-75
2022/06/04 06:09:40;;;;;;;13.40;8.70;;;28.80;99.90;;;;;;5096214;28;20518;-75
2022/06/04 06:12:08;;;;;;;26.67;11.07;;;28.70;99.90;;;;;;5091903;28;20068;-76
2022/06/04 06:14:35;;;;;;;11.77;10.18;;;28.70;99.90;;;;;;5075346;28;20040;-76
2022/06/04 06:17:02;;;;;;;15.80;13.48;;;28.80;99.90;;;;;;5076953;28;20469;-76
2022/06/04 06:19:30;;;;;;;15.73;10.48;;;28.50;99.90;;;;;;5075235;28;20110;-76
2022/06/04 06:21:58;;;;;;;14.70;9.98;;;28.20;99.90;;;;;;5078530;28;20576;-77
2022/06/04 06:24:25;;;;;;;15.07;10.73;;;27.90;99.90;;;;;;5096460;28;20060;-78
2022/06/04 06:26:55;;;;;;;12.35;9.13;;;27.80;99.90;;;;;;5095901;28;20051;-76
2022/06/04 06:29:26;;;;;;;13.02;8.25;;;27.90;99.90;;;;;;5096110;28;20082;-77
2022/06/04 06:31:54;;;;;;;14.43;8.43;;;27.90;99.90;;;;;;5096102;28;20495;-75
2022/06/04 06:34:22;;;;;;;13.20;6.90;;;28.50;99.90;;;;;;5077777;28;20471;-77
2022/06/04 06:36:50;;;;;;;12.63;7.85;;;28.60;99.90;;;;;;5074821;28;20592;-77
2022/06/04 06:39:17;;;;;;;11.57;8.32;;;29.00;99.90;;;;;;5077591;28;20040;-77
2022/06/04 06:41:46;;;;;;;14.27;9.90;;;29.30;99.90;;;;;;5075922;28;20094;-79
2022/06/04 06:44:15;;;;;;;12.77;9.88;;;28.90;99.90;;;;;;5076937;28;20411;-79
2022/06/04 06:46:45;;;;;;;14.23;8.13;;;28.70;99.90;;;;;;5095066;28;20510;-78
2022/06/04 06:49:15;;;;;;;13.43;8.52;;;29.00;99.90;;;;;;5065245;28;20086;-78
2022/06/04 06:51:45;;;;;;;14.23;8.00;;;29.10;99.90;;;;;;5075845;28;20052;-76
2022/06/04 06:54:13;;;;;;;11.57;7.93;;;29.40;99.90;;;;;;5075252;28;20454;-76
2022/06/04 06:56:42;;;;;;;9.00;7.30;;;29.20;99.90;;;;;;5074625;28;20045;-78
2022/06/04 06:59:10;;;;;;;11.88;8.05;;;29.30;99.90;;;;;;5084197;28;20028;-78
2022/06/04 07:01:41;;;;;;;12.63;9.43;;;29.50;99.90;;;;;;5085155;28;20059;-78
2022/06/04 07:04:10;;;;;;;13.02;7.97;;;29.40;99.90;;;;;;5092021;28;20537;-78
2022/06/04 07:06:38;;;;;;;12.13;8.35;;;28.90;99.90;;;;;;5075832;28;20492;-79
2022/06/04 07:09:14;;;;;;;17.73;8.85;;;29.10;99.90;;;;;;5083261;28;20075;-76
2022/06/04 07:11:42;;;;;;;15.02;8.95;;;28.70;99.90;;;;;;5079144;28;20127;-79
2022/06/04 07:14:10;;;;;;;15.65;10.45;;;28.40;99.90;;;;;;5096421;28;20040;-78
2022/06/04 07:16:39;;;;;;;15.10;9.98;;;28.20;99.90;;;;;;5096666;28;20372;-79
2022/06/04 07:19:06;;;;;;;16.90;8.55;;;28.30;99.90;;;;;;5096598;28;20403;-78
2022/06/04 07:21:34;;;;;;;15.68;8.95;;;28.00;99.90;;;;;;5078170;28;20105;-78
2022/06/04 07:24:01;;;;;;;20.27;9.25;;;28.10;99.90;;;;;;5097764;28;20043;-81
2022/06/04 07:26:29;;;;;;;11.30;8.80;;;28.10;99.90;;;;;;5094263;28;20052;-78
2022/06/04 07:28:57;;;;;;;13.18;10.00;;;28.00;99.90;;;;;;5067763;28;20056;-80
2022/06/04 07:31:24;;;;;;;17.75;11.73;;;28.00;99.90;;;;;;5080039;28;20040;-79
2022/06/04 07:33:55;;;;;;;15.23;9.20;;;28.20;99.90;;;;;;5077276;28;20101;-77
2022/06/04 07:36:25;;;;;;;15.25;8.60;;;28.80;99.90;;;;;;5075310;28;20044;-77
2022/06/04 07:38:53;;;;;;;11.85;8.68;;;28.90;99.90;;;;;;5076476;28;20098;-78
2022/06/04 07:41:22;;;;;;;13.88;10.43;;;28.80;99.90;;;;;;5077231;28;20464;-78
2022/06/04 07:43:49;;;;;;;12.23;8.93;;;28.70;99.90;;;;;;5076312;28;20040;-78
2022/06/04 07:46:17;;;;;;;12.80;8.75;;;28.80;99.90;;;;;;5075263;28;20400;-76
2022/06/04 07:48:46;;;;;;;77.03;16.98;;;28.60;99.90;;;;;;5073324;28;20120;-79
2022/06/04 07:51:16;;;;;;;17.13;10.43;;;28.60;99.90;;;;;;5056703;28;20048;-79
2022/06/04 07:53:44;;;;;;;16.95;11.32;;;28.70;99.90;;;;;;5074671;28;20037;-76
2022/06/04 07:56:15;;;;;;;13.73;10.27;;;28.90;99.90;;;;;;5074780;28;20051;-78
2022/06/04 07:58:42;;;;;;;13.73;11.63;;;28.90;99.90;;;;;;5056569;28;20457;-78
2022/06/04 08:01:14;;;;;;;14.68;11.55;;;28.80;99.90;;;;;;5075371;28;20109;-78
2022/06/04 08:03:43;;;;;;;16.52;12.27;;;28.80;99.90;;;;;;5056249;28;20059;-75
2022/06/04 08:06:13;;;;;;;15.25;11.15;;;29.10;99.90;;;;;;5074268;28;20495;-77
2022/06/04 08:08:42;;;;;;;15.60;11.13;;;29.10;99.90;;;;;;5074356;28;20136;-77
2022/06/04 08:13:50;;;;;;;19.75;12.73;;;29.10;99.90;;;;;;5081301;28;20032;-78
2022/06/04 08:16:18;;;;;;;19.55;11.88;;;29.10;99.90;;;;;;5058978;28;20156;-78
2022/06/04 08:18:46;;;;;;;14.02;11.65;;;29.40;99.90;;;;;;5074788;28;20044;-77
2022/06/04 08:21:14;;;;;;;16.98;11.70;;;29.80;99.90;;;;;;5083525;28;20051;-78
2022/06/04 08:23:44;;;;;;;19.83;13.13;;;30.10;99.90;;;;;;5095135;28;20115;-77
2022/06/04 08:26:13;;;;;;;21.77;11.98;;;30.10;99.90;;;;;;5093730;28;20042;-76
2022/06/04 08:28:40;;;;;;;23.70;14.75;;;30.30;99.90;;;;;;5076358;28;20048;-78
2022/06/04 08:31:11;;;;;;;20.15;12.18;;;30.50;99.90;;;;;;5095396;28;20160;-77
2022/06/04 08:33:39;;;;;;;16.73;12.02;;;30.40;99.90;;;;;;5095812;28;20097;-78
2022/06/04 08:36:08;;;;;;;19.77;15.02;;;30.30;99.90;;;;;;5096252;28;20466;-78
2022/06/04 08:38:37;;;;;;;21.35;12.82;;;30.40;99.90;;;;;;5095554;28;20067;-77
2022/06/04 08:41:07;;;;;;;22.88;13.82;;;30.60;99.90;;;;;;5077064;28;20060;-78
2022/06/04 08:43:43;;;;;;;22.95;15.95;;;30.70;99.90;;;;;;5093243;28;20495;-77
2022/06/04 08:46:15;;;;;;;30.10;20.42;;;30.80;99.90;;;;;;5060345;28;20075;-79
2022/06/04 08:48:44;;;;;;;29.45;16.90;;;31.10;99.90;;;;;;5088987;28;20072;-77
2022/06/04 08:51:21;;;;;;;28.17;15.57;;;31.10;99.90;;;;;;5098294;28;20127;-78
2022/06/04 08:53:52;;;;;;;28.38;14.65;;;31.20;99.90;;;;;;5095003;28;20040;-77
2022/06/04 08:59:22;;;;;;;21.75;13.90;;;31.20;99.90;;;;;;5097107;28;20514;-78
2022/06/04 09:01:55;;;;;;;20.63;11.77;;;31.20;99.90;;;;;;5102115;28;20052;-77
2022/06/04 09:04:36;;;;;;;16.20;12.95;;;31.40;99.90;;;;;;5093473;28;20071;-79
2022/06/04 09:07:10;;;;;;;17.90;14.38;;;31.30;99.90;;;;;;5110493;28;20491;-79
2022/06/04 09:09:43;;;;;;;18.10;12.63;;;31.40;99.90;;;;;;5077030;28;20165;-78
2022/06/04 09:12:26;;;;;;;22.48;12.75;;;31.40;99.90;;;;;;5097383;28;20043;-78
2022/06/04 09:14:58;;;;;;;20.10;13.00;;;31.50;99.90;;;;;;5098690;28;20055;-79
2022/06/04 09:17:35;;;;;;;22.30;13.02;;;31.50;99.90;;;;;;5096074;28;20113;-78
2022/06/04 09:20:14;;;;;;;15.82;11.18;;;31.40;99.90;;;;;;5078538;28;20040;-78
2022/06/04 09:22:44;;;;;;;16.67;10.80;;;31.30;99.90;;;;;;5095663;28;20044;-78
2022/06/04 09:25:13;;;;;;;21.50;14.68;;;31.40;99.90;;;;;;5095695;28;20036;-78
2022/06/04 09:27:49;;;;;;;18.58;12.00;;;31.60;99.90;;;;;;5082977;28;20037;-78
2022/06/04 09:30:23;;;;;;;16.42;12.13;;;31.70;99.90;;;;;;5089915;28;20094;-77
2022/06/04 09:33:03;;;;;;;21.48;12.52;;;31.80;99.90;;;;;;5094435;28;20175;-78
2022/06/04 09:35:33;;;;;;;21.50;12.48;;;31.90;99.90;;;;;;5095836;28;20147;-77
2022/06/04 09:38:01;;;;;;;21.17;13.05;;;32.10;99.90;;;;;;5078998;28;20051;-78
2022/06/04 09:40:30;;;;;;;22.42;13.18;;;32.20;99.90;;;;;;5100365;28;20040;-78
2022/06/04 09:43:13;;;;;;;14.70;10.48;;;32.30;99.90;;;;;;5100010;28;20048;-78
2022/06/04 09:45:42;;;;;;;17.77;11.98;;;32.10;99.90;;;;;;5100621;28;20044;-78
2022/06/04 09:48:20;;;;;;;14.60;10.63;;;32.10;99.90;;;;;;5098051;28;20036;-79
2022/06/04 09:50:53;;;;;;;15.68;7.82;;;32.10;99.90;;;;;;5098019;28;20040;-77
2022/06/04 09:53:23;;;;;;;12.55;8.38;;;32.10;99.90;;;;;;5099859;28;20363;-79
2022/06/04 09:55:56;;;;;;;16.45;7.65;;;32.10;99.90;;;;;;5100822;28;20073;-79
2022/06/04 09:58:30;;;;;;;14.43;5.93;;;32.20;99.90;;;;;;5101525;28;20513;-78
2022/06/04 10:01:01;;;;;;;19.10;7.03;;;31.90;99.90;;;;;;5100169;28;20467;-78
2022/06/04 10:03:30;;;;;;;12.98;6.25;;;32.00;99.90;;;;;;5099242;28;20044;-77
2022/06/04 10:06:04;;;;;;;12.88;6.57;;;32.20;99.90;;;;;;5099665;28;20046;-78
2022/06/04 10:09:54;;;;;;;12.65;6.95;;;32.30;99.90;;;;;;5100512;28;20109;-79
2022/06/04 10:11:21;;;;;;;11.77;7.10;;;32.40;99.90;;;;;;5099960;28;20085;-78
2022/06/04 10:13:53;;;;;;;14.98;7.05;;;32.50;99.90;;;;;;5099149;28;20097;-78
2022/06/04 10:16:23;;;;;;;16.17;6.95;;;32.40;99.90;;;;;;5100384;28;20040;-78
2022/06/04 10:18:59;;;;;;;12.80;6.72;;;32.20;99.90;;;;;;5099362;28;20032;-79
2022/06/04 10:21:29;;;;;;;12.63;6.45;;;32.00;99.90;;;;;;5100991;28;20097;-79
2022/06/04 10:23:58;;;;;;;11.77;4.97;;;31.90;99.90;;;;;;5098332;28;20044;-79
2022/06/04 10:26:48;;;;;;;15.57;4.70;;;32.00;99.90;;;;;;5099711;28;20127;-78
2022/06/04 10:29:34;;;;;;;12.32;6.80;;;31.90;99.90;;;;;;5097919;28;20044;-79
2022/06/04 10:32:11;;;;;;;11.38;6.40;;;32.10;99.90;;;;;;5100590;28;20071;-78
2022/06/04 10:34:53;;;;;;;13.75;4.25;;;32.30;99.90;;;;;;5099642;28;20059;-78
2022/06/04 10:37:35;;;;;;;8.77;4.03;;;32.00;99.90;;;;;;5099056;28;20040;-78
2022/06/04 10:40:39;;;;;;;11.90;4.50;;;31.60;99.90;;;;;;5099068;28;20071;-78
2022/06/04 10:43:21;;;;;;;11.70;5.05;;;31.50;99.90;;;;;;5102129;28;20093;-78
2022/06/04 10:45:55;;;;;;;11.48;4.28;;;31.70;99.90;;;;;;5082534;28;20116;-78
2022/06/04 10:48:34;;;;;;;7.97;4.00;;;32.00;99.90;;;;;;5103587;28;20541;-78
2022/06/04 10:51:28;;;;;;;8.85;4.22;;;31.60;99.90;;;;;;5110902;28;20058;-80
2022/06/04 10:54:09;;;;;;;11.68;5.43;;;31.70;99.90;;;;;;5112121;28;20048;-79
2022/06/04 10:56:43;;;;;;;9.27;4.93;;;31.90;99.90;;;;;;5106974;28;20044;-79
2022/06/04 10:59:20;;;;;;;8.73;4.80;;;31.70;99.90;;;;;;5106941;28;20058;-79
2022/06/04 11:01:55;;;;;;;8.57;4.45;;;31.80;99.90;;;;;;5106930;28;20403;-79
2022/06/04 11:04:35;;;;;;;10.00;4.40;;;31.60;99.90;;;;;;5108528;28;20113;-80
2022/06/04 11:07:15;;;;;;;13.90;4.28;;;31.70;99.90;;;;;;5104987;28;20040;-79
2022/06/04 11:09:44;;;;;;;8.13;4.28;;;31.70;99.90;;;;;;5104737;28;20384;-79
2022/06/04 11:12:24;;;;;;;11.57;5.05;;;31.70;99.90;;;;;;5100305;28;20548;-79
2022/06/04 11:14:56;;;;;;;9.90;4.80;;;31.70;99.90;;;;;;5099238;28;20090;-78
2022/06/04 11:17:28;;;;;;;11.45;4.75;;;31.90;99.90;;;;;;5099909;28;20044;-78
2022/06/04 11:20:00;;;;;;;7.25;4.07;;;32.10;99.90;;;;;;5082084;28;20097;-78
2022/06/04 11:22:34;;;;;;;8.07;4.07;;;32.00;99.90;;;;;;5101022;28;20105;-79
2022/06/04 11:25:15;;;;;;;9.38;4.28;;;31.90;99.90;;;;;;5099426;28;20114;-77
2022/06/04 11:27:48;;;;;;;9.02;4.25;;;31.70;99.90;;;;;;5098700;28;20052;-78
2022/06/04 11:30:19;;;;;;;11.68;3.95;;;31.60;99.90;;;;;;5098521;28;20032;-78
2022/06/04 11:32:55;;;;;;;11.55;4.38;;;31.70;99.90;;;;;;5081260;28;20499;-78
2022/06/04 11:35:34;;;;;;;13.18;6.13;;;31.70;99.90;;;;;;5115033;28;20040;-78
2022/06/04 11:38:25;;;;;;;12.60;4.85;;;31.80;99.90;;;;;;5116607;28;20051;-80
2022/06/04 11:40:59;;;;;;;9.10;4.20;;;31.90;99.90;;;;;;5109746;28;20052;-79
2022/06/04 11:43:42;;;;;;;12.82;5.88;;;31.90;99.90;;;;;;5107759;28;20051;-78
2022/06/04 11:46:26;;;;;;;8.88;4.72;;;31.90;99.90;;;;;;5098834;28;20051;-78
2022/06/04 11:49:08;;;;;;;15.55;4.78;;;31.70;99.90;;;;;;5098723;28;20044;-78
2022/06/04 11:51:50;;;;;;;9.25;6.05;;;31.70;99.90;;;;;;5097657;28;20097;-78
2022/06/04 11:54:31;;;;;;;10.98;4.97;;;31.90;99.90;;;;;;5097302;28;20051;-78
2022/06/04 11:57:07;;;;;;;9.70;4.32;;;32.10;99.90;;;;;;5098992;28;20076;-78
2022/06/04 11:59:47;;;;;;;11.13;4.38;;;32.10;99.90;;;;;;5099017;28;20066;-77
2022/06/04 12:02:21;;;;;;;11.13;4.72;;;32.10;99.90;;;;;;5097653;28;20052;-78
2022/06/04 12:05:03;;;;;;;11.77;4.73;;;32.00;99.90;;;;;;5099027;28;20052;-77
2022/06/04 12:07:37;;;;;;;15.65;5.57;;;32.10;99.90;;;;;;5080094;28;20093;-79
2022/06/04 12:10:18;;;;;;;13.67;6.03;;;32.20;99.90;;;;;;5099863;28;20120;-78
2022/06/04 12:12:53;;;;;;;13.35;4.65;;;32.30;99.90;;;;;;5081376;28;20048;-79
2022/06/04 12:15:28;;;;;;;10.55;4.95;;;32.20;99.90;;;;;;5096795;28;20044;-77
2022/06/04 12:18:00;;;;;;;14.48;4.38;;;32.10;99.90;;;;;;5094788;28;20118;-77
2022/06/04 12:26:21;;;;;;;14.57;4.80;;;32.20;99.90;;;;;;5075944;28;20047;-77
2022/06/04 12:28:49;;;;;;;9.55;4.68;;;32.30;99.90;;;;;;5094639;28;20081;-77
2022/06/04 12:31:33;;;;;;;9.30;4.75;;;32.20;99.90;;;;;;5094713;28;20490;-77
2022/06/04 12:34:02;;;;;;;8.50;4.10;;;32.20;99.90;;;;;;5093982;28;20040;-77
2022/06/04 12:36:34;;;;;;;9.88;5.70;;;32.10;99.90;;;;;;5094480;28;20051;-77
2022/06/04 12:39:06;;;;;;;10.05;4.28;;;32.10;99.90;;;;;;5094479;28;20047;-77
2022/06/04 12:41:45;;;;;;;7.43;3.85;;;32.20;99.90;;;;;;5094495;28;20368;-77
2022/06/04 12:44:27;;;;;;;8.63;4.38;;;32.10;99.90;;;;;;5093910;28;20036;-77
2022/06/04 12:46:56;;;;;;;10.57;4.97;;;32.00;99.90;;;;;;5094569;28;20459;-78
2022/06/04 12:49:33;;;;;;;12.40;4.68;;;32.00;99.90;;;;;;5095469;28;20372;-77
2022/06/04 12:52:07;;;;;;;10.55;4.18;;;31.70;99.90;;;;;;5096032;28;20067;-78
2022/06/04 12:54:52;;;;;;;12.13;3.77;;;31.80;99.90;;;;;;5097285;28;20438;-80
2022/06/04 12:57:31;;;;;;;14.27;6.30;;;31.80;99.90;;;;;;5096892;28;20048;-78
2022/06/04 13:00:29;;;;;;;12.50;7.30;;;32.00;99.90;;;;;;5101653;28;20067;-78
2022/06/04 13:03:00;;;;;;;11.27;5.28;;;32.10;99.90;;;;;;5111941;28;20044;-77
2022/06/04 13:05:29;;;;;;;220.55;37.10;;;32.20;99.90;;;;;;5111692;28;20044;-79
2022/06/04 13:08:11;;;;;;;13.70;4.28;;;32.20;99.90;;;;;;5097701;28;20054;-78
2022/06/04 13:10:46;;;;;;;9.32;4.47;;;32.10;99.90;;;;;;5098330;28;20036;-79
2022/06/04 13:13:24;;;;;;;8.23;4.28;;;32.00;99.90;;;;;;5096448;28;20115;-78
2022/06/04 13:15:54;;;;;;;9.07;4.80;;;31.80;99.90;;;;;;5079143;28;20461;-78
2022/06/04 13:18:26;;;;;;;10.55;4.70;;;31.70;99.90;;;;;;5095952;28;20067;-78